Terminal Aerodrome Forecast
Issued by NWS Pueblo, CO

Home | Current Version | Previous Version | Text Only | Print | Product List | Glossary On
Versions: 1 2 3 4 5 6 7 8 9 10 11 12 13 14 15 16 17 18 19 20 21 22 23 24 25 26 27 28 29 30 31 32 33 34 35 36
000
FTUS45 KPUB 270520
TAFPUB
TAF
KPUB 270520Z 2706/2806 VRB06KT P6SM SCT090 BKN150
     FM271400 13006KT P6SM FEW120 SCT200
     FM272000 14010KT P6SM VCTS SCT090CB BKN150
     FM280300 VRB06KT P6SM SCT130 SCT200=

USA.gov is the U.S. government's official web portal to all federal, state and local government web resources and services.